Time;durP1;ratioP1;P1;durP2;ratioP2;P2;SDS_P1;SDS_P2;PMS_P1;PMS_P2;Temp;Humidity;BMP_temperature;BMP_pressure;BME280_temperature;BME280_humidity;BME280_pressure;Samples;Min_cycle;Max_cycle;Signal;HPM_P1;HPM_P2
2022/05/13 00:00:14;;;;;;;4.10;2.15;;;;;;;10.72;100.00;101587.25;10454586;28;20079;-65
2022/05/13 00:05:15;;;;;;;4.05;1.75;;;;;;;10.85;100.00;101583.44;10437376;28;20041;-66
2022/05/13 00:10:15;;;;;;;5.07;2.10;;;;;;;10.94;100.00;101578.41;10436661;28;20056;-66
2022/05/13 00:15:21;;;;;;;10.25;2.30;;;;;;;10.91;100.00;101554.91;10436818;28;20040;-66
2022/05/13 00:20:22;;;;;;;7.22;1.88;;;;;;;11.07;100.00;101573.47;10453531;28;20041;-66
2022/05/13 00:25:26;;;;;;;4.10;1.83;;;;;;;11.12;100.00;101559.00;10436772;28;20089;-66
2022/05/13 00:30:28;;;;;;;10.80;2.20;;;;;;;11.22;100.00;101558.38;10439145;28;20418;-66
2022/05/13 00:35:29;;;;;;;8.57;2.00;;;;;;;11.20;100.00;101549.50;10451299;28;20098;-66
2022/05/13 00:40:29;;;;;;;11.02;2.20;;;;;;;11.26;100.00;101559.56;10484621;28;20096;-67
2022/05/13 00:45:31;;;;;;;14.07;2.65;;;;;;;11.26;100.00;101548.53;10485041;28;20039;-66
2022/05/13 00:50:34;;;;;;;6.43;1.95;;;;;;;11.10;100.00;101534.44;10503456;28;20029;-67
2022/05/13 00:55:37;;;;;;;6.95;2.00;;;;;;;11.11;100.00;101541.63;10484989;28;20051;-66
2022/05/13 01:00:38;;;;;;;5.20;1.92;;;;;;;10.99;100.00;101527.00;10466833;28;20044;-65
2022/05/13 01:05:41;;;;;;;7.95;2.15;;;;;;;11.02;100.00;101526.53;10448945;28;20040;-66
2022/05/13 01:10:43;;;;;;;6.60;2.83;;;;;;;11.16;100.00;101542.81;10459143;28;20037;-66
2022/05/13 01:15:45;;;;;;;3.90;1.65;;;;;;;11.19;100.00;101534.06;10442993;28;20504;-67
2022/05/13 01:20:50;;;;;;;7.05;2.28;;;;;;;11.17;100.00;101533.47;10460555;28;20044;-66
2022/05/13 01:26:02;;;;;;;9.32;2.47;;;;;;;11.20;100.00;101530.22;10460263;28;20200;-66
2022/05/13 01:31:08;;;;;;;6.72;2.22;;;;;;;11.16;100.00;101518.00;10460117;28;20116;-66
2022/05/13 01:36:12;;;;;;;6.70;2.60;;;;;;;11.13;100.00;101513.00;10463675;28;20599;-66
2022/05/13 01:41:13;;;;;;;11.82;3.40;;;;;;;11.16;100.00;101518.00;10425027;28;20052;-66
2022/05/13 01:46:14;;;;;;;6.60;2.38;;;;;;;11.15;100.00;101516.34;10458358;28;20029;-66
2022/05/13 01:51:15;;;;;;;7.43;3.03;;;;;;;11.14;100.00;101518.25;10441268;28;20033;-66
2022/05/13 01:56:15;;;;;;;6.75;2.47;;;;;;;11.09;100.00;101513.47;10442645;28;20112;-66
2022/05/13 02:01:16;;;;;;;8.30;2.58;;;;;;;11.10;100.00;101512.41;10481541;28;20512;-66
2022/05/13 02:06:24;;;;;;;10.07;2.97;;;;;;;11.09;100.00;101499.69;10480460;28;20056;-66
2022/05/13 02:11:26;;;;;;;4.72;2.67;;;;;;;10.81;100.00;101448.13;10481469;28;20051;-66
2022/05/13 02:16:27;;;;;;;6.22;2.05;;;;;;;11.16;100.00;101498.72;10464971;28;20032;-66
2022/05/13 02:21:27;;;;;;;10.25;2.67;;;;;;;11.14;100.00;101495.34;10497525;28;20025;-65
2022/05/13 02:26:28;;;;;;;7.65;2.60;;;;;;;11.14;100.00;101498.13;10441156;28;20036;-66
2022/05/13 02:31:30;;;;;;;8.25;2.45;;;;;;;11.14;100.00;101495.34;10439154;28;20049;-65
2022/05/13 02:36:30;;;;;;;8.88;2.17;;;;;;;11.13;100.00;101493.69;10454873;28;20056;-65
2022/05/13 02:41:31;;;;;;;7.53;2.47;;;;;;;11.11;100.00;101474.66;10438072;28;20052;-65
2022/05/13 02:46:32;;;;;;;10.65;2.55;;;;;;;11.08;100.00;101470.47;10438400;28;20037;-65
2022/05/13 02:51:33;;;;;;;12.75;3.30;;;;;;;10.97;100.00;101457.53;10439318;28;20432;-66
2022/05/13 02:56:34;;;;;;;8.95;3.03;;;;;;;11.06;100.00;101461.59;10438850;28;20045;-65
2022/05/13 03:01:34;;;;;;;10.15;2.60;;;;;;;11.00;100.00;101442.47;10421609;28;20397;-66
2022/05/13 03:06:35;;;;;;;10.38;2.92;;;;;;;11.00;100.00;101454.31;10454488;28;20071;-65
2022/05/13 03:11:36;;;;;;;10.48;3.40;;;;;;;10.92;100.00;101427.13;10495743;28;20052;-65
2022/05/13 03:16:37;;;;;;;11.07;3.00;;;;;;;10.93;100.00;101427.97;10479468;28;20047;-65
2022/05/13 03:21:37;;;;;;;11.10;2.95;;;;;;;10.95;100.00;101434.91;10480416;28;20040;-65
2022/05/13 03:26:38;;;;;;;10.30;3.70;;;;;;;10.98;100.00;101437.19;10463363;28;20039;-65
2022/05/13 03:31:38;;;;;;;13.63;3.10;;;;;;;10.88;100.00;101426.78;10477416;28;20036;-66
2022/05/13 03:36:39;;;;;;;10.15;2.70;;;;;;;10.90;100.00;101441.13;10461670;28;20037;-66
2022/05/13 03:41:40;;;;;;;7.82;2.95;;;;;;;10.93;100.00;101445.31;10495598;28;20058;-65
2022/05/13 03:46:40;;;;;;;10.18;3.10;;;;;;;10.82;100.00;101426.91;10496995;28;20059;-65
2022/05/13 03:51:40;;;;;;;6.47;2.58;;;;;;;10.88;100.00;101462.59;10480139;28;20029;-65
2022/05/13 03:56:41;;;;;;;10.05;3.25;;;;;;;10.86;100.00;101450.16;10478563;28;20052;-65
2022/05/13 04:01:41;;;;;;;6.03;3.22;;;;;;;10.89;100.00;101460.66;10477697;28;20041;-66
2022/05/13 04:17:20;;;;;;;11.38;3.50;;;;;;;10.92;100.00;101485.00;10504260;28;20106;-65
2022/05/13 04:22:24;;;;;;;10.27;3.22;;;;;;;10.94;100.00;101491.09;10503446;28;20579;-65
2022/05/13 04:27:25;;;;;;;9.00;2.92;;;;;;;10.95;100.00;101492.75;10484777;28;20064;-65
2022/05/13 04:32:25;;;;;;;19.10;4.43;;;;;;;11.00;100.00;101501.16;10484347;28;20158;-65
2022/05/13 04:37:26;;;;;;;13.82;3.72;;;;;;;11.05;100.00;101492.97;10503876;28;20288;-66
2022/05/13 04:53:05;;;;;;;19.35;5.35;;;;;;;11.09;100.00;101493.34;10486084;28;20036;-66
2022/05/13 04:58:05;;;;;;;10.05;3.38;;;;;;;11.17;100.00;101501.22;10500333;28;20047;-66
2022/05/13 05:03:06;;;;;;;11.85;3.35;;;;;;;11.22;100.00;101487.53;10458005;28;20037;-66
2022/05/13 05:08:07;;;;;;;11.10;3.97;;;;;;;11.26;100.00;101485.16;10458872;28;20342;-65
2022/05/13 05:13:07;;;;;;;14.98;3.97;;;;;;;11.28;100.00;101502.28;10460876;28;20041;-65
2022/05/13 05:18:08;;;;;;;11.63;4.18;;;;;;;11.29;100.00;101502.03;10459003;28;20083;-66
2022/05/13 05:23:13;;;;;;;16.52;3.40;;;;;;;11.30;100.00;101502.88;10441646;28;20040;-66
2022/05/13 05:28:14;;;;;;;10.52;3.63;;;;;;;11.35;100.00;101507.66;10442303;28;20025;-65
2022/05/13 05:33:15;;;;;;;12.05;4.28;;;;;;;11.58;100.00;101517.78;10441379;28;20051;-65
2022/05/13 05:38:15;;;;;;;13.50;3.53;;;;;;;11.78;100.00;101534.75;10425618;28;20044;-65
2022/05/13 05:43:16;;;;;;;14.50;3.13;;;;;;;11.88;100.00;101523.91;10426572;28;20044;-65
2022/05/13 05:48:21;;;;;;;16.85;3.30;;;;;;;12.04;100.00;101532.47;10457984;28;20029;-66
2022/05/13 05:58:41;;;;;;;15.55;3.13;;;;;;;12.40;100.00;101535.84;10483780;28;20032;-65
2022/05/13 06:03:42;;;;;;;10.65;3.50;;;;;;;12.63;100.00;101540.38;10481665;28;20082;-66
2022/05/13 06:08:42;;;;;;;11.77;4.10;;;;;;;12.65;100.00;101536.28;10482889;28;20045;-66
2022/05/13 06:13:42;;;;;;;14.38;3.30;;;;;;;12.92;100.00;101541.13;10498929;28;20056;-65
2022/05/13 06:18:43;;;;;;;10.32;3.00;;;;;;;13.24;100.00;101546.81;10497855;28;20048;-65
2022/05/13 06:23:44;;;;;;;14.75;3.80;;;;;;;13.43;100.00;101539.06;10491495;28;20048;-65
2022/05/13 06:28:44;;;;;;;14.43;3.22;;;;;;;13.45;100.00;101552.63;10439105;28;20033;-65
2022/05/13 06:33:45;;;;;;;10.93;2.95;;;;;;;13.31;100.00;101552.19;10439414;28;20044;-65
2022/05/13 06:38:47;;;;;;;15.02;3.58;;;;;;;13.17;100.00;101539.78;10458095;28;20084;-66
2022/05/13 06:43:47;;;;;;;12.65;3.10;;;;;;;13.23;100.00;101549.81;10423902;28;20166;-66
2022/05/13 06:48:48;;;;;;;11.00;2.63;;;;;;;13.18;100.00;101549.75;10457597;28;20419;-65
2022/05/13 06:53:48;;;;;;;11.55;2.13;;;;;;;13.32;100.00;101553.88;10454107;28;20120;-66
2022/05/13 06:58:49;;;;;;;12.70;3.75;;;;;;;13.44;100.00;101545.44;10436910;28;20500;-65
2022/05/13 07:03:49;;;;;;;16.95;2.75;;;;;;;13.68;100.00;101557.06;10454908;28;20501;-65
2022/05/13 07:08:50;;;;;;;12.43;2.83;;;;;;;13.77;100.00;101554.72;10423417;28;20488;-64
2022/05/13 07:13:50;;;;;;;13.88;2.92;;;;;;;14.07;100.00;101570.78;10422229;28;20056;-66
2022/05/13 07:18:51;;;;;;;8.35;3.72;;;;;;;14.18;100.00;101572.59;10456370;28;20040;-65
2022/05/13 07:23:51;;;;;;;9.20;2.92;;;;;;;13.91;100.00;101569.78;10460551;28;20537;-65
2022/05/13 07:28:52;;;;;;;8.10;2.22;;;;;;;13.85;100.00;101571.69;10494441;28;20102;-64
2022/05/13 07:33:52;;;;;;;7.93;2.55;;;;;;;13.95;100.00;101587.53;10496035;28;20036;-65
2022/05/13 07:44:12;;;;;;;9.98;2.65;;;;;;;14.42;100.00;101573.06;10494872;28;20054;-66
2022/05/13 07:49:12;;;;;;;9.45;3.20;;;;;;;14.33;100.00;101581.03;10495758;28;20033;-66
2022/05/13 07:54:13;;;;;;;8.50;1.95;;;;;;;14.35;100.00;101577.19;10494779;28;20501;-65
2022/05/13 07:59:13;;;;;;;5.57;1.98;;;;;;;14.13;100.00;101565.03;10492612;28;20052;-66
2022/05/13 08:04:14;;;;;;;7.03;1.33;;;;;;;14.82;100.00;101568.16;10454651;28;20032;-66
2022/05/13 08:09:15;;;;;;;4.40;1.23;;;;;;;15.48;100.00;101565.81;10477870;28;20048;-67
2022/05/13 08:14:15;;;;;;;7.88;2.00;;;;;;;15.73;99.66;101575.38;10460580;28;20036;-65
2022/05/13 08:19:16;;;;;;;6.50;1.20;;;;;;;15.79;95.84;101585.38;10495075;28;20037;-66
2022/05/13 08:24:16;;;;;;;9.05;2.13;;;;;;;16.04;96.48;101587.41;10475461;28;20037;-66
2022/05/13 08:29:17;;;;;;;6.63;1.75;;;;;;;15.45;96.12;101596.84;10495011;28;20036;-68
2022/05/13 08:34:17;;;;;;;5.68;1.45;;;;;;;15.09;97.33;101607.75;10494918;28;20036;-67
2022/05/13 08:39:18;;;;;;;4.65;1.70;;;;;;;14.93;97.77;101600.41;10491491;28;20036;-69
2022/05/13 08:44:18;;;;;;;11.40;1.25;;;;;;;14.82;97.26;101605.06;10459160;28;20067;-66
2022/05/13 08:49:36;;;;;;;6.22;1.00;;;;;;;14.82;97.70;101615.28;10444146;28;20040;-67
2022/05/13 08:54:36;;;;;;;4.78;1.80;;;;;;;14.81;99.19;101619.19;10466994;28;20049;-66
2022/05/13 08:59:52;;;;;;;4.82;1.13;;;;;;;14.67;99.27;101629.84;10447686;28;20033;-66
2022/05/13 09:05:23;;;;;;;5.07;1.10;;;;;;;14.48;100.00;101638.50;10449161;28;20039;-65
2022/05/13 09:10:23;;;;;;;9.85;1.35;;;;;;;14.61;99.67;101636.44;10500297;28;20063;-68
2022/05/13 09:15:44;;;;;;;10.63;1.40;;;;;;;14.59;100.00;101645.03;10482896;28;20036;-66
2022/05/13 09:20:50;;;;;;;9.02;1.30;;;;;;;15.01;100.00;101640.69;10483839;28;20040;-67
2022/05/13 09:25:54;;;;;;;7.33;1.00;;;;;;;15.05;97.69;101639.88;10502565;28;20035;-65
2022/05/13 09:31:05;;;;;;;8.05;1.50;;;;;;;15.78;96.62;101633.69;10499435;28;20037;-67
2022/05/13 09:36:18;;;;;;;6.78;1.63;;;;;;;15.81;95.25;101647.00;10450584;28;20040;-67
2022/05/13 09:41:33;;;;;;;6.28;1.30;;;;;;;15.77;95.48;101661.72;10466556;28;20072;-66
2022/05/13 09:46:38;;;;;;;3.92;1.20;;;;;;;15.81;91.00;101644.25;10501688;28;20040;-66
2022/05/13 09:51:49;;;;;;;6.38;1.23;;;;;;;15.71;91.22;101645.00;10468145;28;20036;-66
2022/05/13 09:56:55;;;;;;;6.07;1.05;;;;;;;15.67;92.23;101651.38;10483355;28;20480;-66
2022/05/13 10:01:55;;;;;;;4.20;1.00;;;;;;;16.04;90.95;101656.00;10498232;28;20032;-67
2022/05/13 10:07:04;;;;;;;4.78;1.00;;;;;;;16.00;90.28;101663.19;10481780;28;20033;-67
2022/05/13 10:17:25;;;;;;;7.28;1.73;;;;;;;15.40;89.22;101654.25;10502070;28;20123;-66
2022/05/13 10:22:46;;;;;;;3.28;0.73;;;;;;;15.34;93.28;101675.59;10439640;28;20033;-66
2022/05/13 10:28:00;;;;;;;5.22;1.02;;;;;;;15.06;94.27;101676.78;10440595;28;20048;-66
2022/05/13 10:33:02;;;;;;;5.20;1.45;;;;;;;14.79;94.98;101674.88;10455680;28;20033;-66
2022/05/13 10:38:14;;;;;;;4.70;1.08;;;;;;;15.45;94.69;101660.69;10456778;28;20055;-65
2022/05/13 10:43:19;;;;;;;2.80;1.00;;;;;;;16.96;86.89;101653.41;10441560;28;20036;-66
2022/05/13 10:48:29;;;;;;;3.97;1.05;;;;;;;17.87;84.28;101647.97;10455854;28;20032;-67
2022/05/13 10:53:48;;;;;;;3.97;0.90;;;;;;;17.97;82.44;101649.91;10422850;28;20040;-67
2022/05/13 10:59:20;;;;;;;2.95;0.70;;;;;;;17.18;80.81;101663.41;10474825;28;20044;-68
2022/05/13 11:04:30;;;;;;;5.38;0.77;;;;;;;16.71;81.76;101660.59;10477259;28;20048;-66
2022/05/13 11:09:47;;;;;;;2.95;0.73;;;;;;;17.17;80.81;101661.75;10491345;28;20044;-67
2022/05/13 11:15:06;;;;;;;;;;;;;;;17.15;78.24;101664.81;10479732;28;20074;-67
2022/05/13 11:20:15;;;;;;;2.90;0.88;;;;;;;16.94;79.72;101669.56;10494336;28;19960;-66
2022/05/13 11:25:56;;;;;;;2.85;0.70;;;;;;;16.97;79.35;101676.50;10489446;28;20060;-67
2022/05/13 11:31:02;;;;;;;4.88;0.95;;;;;;;17.34;78.25;101665.06;10495826;28;20040;-67
2022/05/13 11:36:33;;;;;;;4.38;0.70;;;;;;;17.63;76.25;101667.22;10475903;28;20037;-67
2022/05/13 11:41:40;;;;;;;7.35;1.55;;;;;;;17.52;77.53;101686.75;10476405;28;20048;-67
2022/05/13 11:46:54;;;;;;;;;;;;;;;17.23;78.44;101680.13;10479365;28;20448;-66
2022/05/13 11:51:56;;;;;;;3.75;0.98;;;;;;;17.17;80.46;101686.78;10495365;28;20437;-67
2022/05/13 11:57:18;;;;;;;6.60;1.05;;;;;;;17.79;80.05;101699.50;10469158;28;20123;-67
2022/05/13 12:02:32;;;;;;;2.78;0.93;;;;;;;17.36;78.06;101690.66;10490626;28;20500;-68
2022/05/13 12:07:38;;;;;;;2.63;0.68;;;;;;;17.26;78.33;101679.53;10495099;28;20436;-67
2022/05/13 12:12:49;;;;;;;5.57;1.25;;;;;;;17.17;79.32;101686.78;10496770;28;20061;-66
2022/05/13 12:18:01;;;;;;;5.32;1.08;;;;;;;17.20;79.27;101680.66;10496501;28;20453;-67
2022/05/13 12:23:11;;;;;;;4.57;1.30;;;;;;;17.24;79.48;101684.56;10437920;28;20090;-66
2022/05/13 12:28:14;;;;;;;4.88;1.02;;;;;;;17.30;77.41;101686.22;10460055;28;20421;-66
2022/05/13 12:33:23;;;;;;;2.08;1.10;;;;;;;17.11;77.18;101689.56;10463121;28;20033;-67
2022/05/13 12:38:23;;;;;;;7.07;1.48;;;;;;;17.06;77.68;101688.75;10464427;28;20120;-66
2022/05/13 12:43:43;;;;;;;5.13;1.38;;;;;;;17.39;76.72;101683.72;10462581;28;20159;-66
2022/05/13 12:49:09;;;;;;;4.13;1.10;;;;;;;17.60;75.24;101690.09;10460944;28;20041;-66
2022/05/13 12:54:09;;;;;;;8.30;0.95;;;;;;;19.13;71.71;101674.53;10461642;28;20036;-67
2022/05/13 12:59:15;;;;;;;3.70;0.60;;;;;;;19.04;70.14;101668.75;10459147;28;20048;-69
2022/05/13 13:04:17;;;;;;;7.00;1.17;;;;;;;18.60;68.20;101658.44;10445086;28;20087;-67
2022/05/13 13:09:17;;;;;;;5.53;1.48;;;;;;;18.24;68.22;101675.38;10444724;28;20032;-67
2022/05/13 13:14:55;;;;;;;2.92;0.90;;;;;;;17.73;69.83;101689.47;10452755;28;20040;-67
2022/05/13 13:19:58;;;;;;;6.07;1.20;;;;;;;17.68;69.75;101695.06;10456494;28;20100;-67
2022/05/13 13:24:59;;;;;;;6.28;1.00;;;;;;;17.83;70.36;101677.50;10426044;28;20052;-67
2022/05/13 13:30:00;;;;;;;7.05;1.73;;;;;;;18.22;69.95;101679.59;10460664;28;20302;-65
2022/05/13 13:35:01;;;;;;;6.28;1.10;;;;;;;18.55;67.78;101673.25;10458876;28;20033;-66
2022/05/13 13:40:35;;;;;;;5.70;1.08;;;;;;;18.79;67.95;101692.09;10448556;28;20032;-67
2022/05/13 13:45:35;;;;;;;3.90;0.90;;;;;;;19.45;67.10;101696.28;10497936;28;20489;-67
2022/05/13 13:50:39;;;;;;;6.65;1.35;;;;;;;18.94;66.71;101691.16;10498321;28;20036;-68
2022/05/13 13:55:39;;;;;;;4.53;1.23;;;;;;;18.17;68.54;101705.53;10464176;28;20061;-66
2022/05/13 14:00:41;;;;;;;8.32;1.25;;;;;;;18.16;70.99;101712.22;10453969;28;20041;-67
2022/05/13 14:05:44;;;;;;;7.03;1.38;;;;;;;19.15;69.00;101703.78;10496846;28;20040;-69
2022/05/13 14:10:54;;;;;;;10.13;1.75;;;;;;;19.22;67.54;101697.03;10465187;28;20033;-67
2022/05/13 14:16:16;;;;;;;6.18;1.40;;;;;;;19.46;67.76;101697.94;10478885;28;20032;-69
2022/05/13 14:21:30;;;;;;;7.55;1.70;;;;;;;19.12;67.33;101690.44;10500888;28;20155;-66
2022/05/13 14:26:32;;;;;;;11.57;2.17;;;;;;;18.83;67.71;101697.91;10440082;28;20071;-65
2022/05/13 14:31:35;;;;;;;4.47;1.35;;;;;;;20.15;65.27;101686.56;10469265;28;20044;-69
2022/05/13 14:36:40;;;;;;;6.53;1.48;;;;;;;19.35;67.21;101710.34;10478233;28;20136;-69
2022/05/13 14:41:50;;;;;;;7.15;2.60;;;;;;;18.80;67.76;101712.44;10479349;28;20033;-67
2022/05/13 14:46:54;;;;;;;;;;;;;;;18.93;68.15;101721.00;10478851;28;20043;-67
2022/05/13 14:51:57;;;;;;;7.97;1.40;;;;;;;18.44;69.14;101726.56;10497003;28;19916;-66
2022/05/13 14:57:03;;;;;;;12.80;2.45;;;;;;;18.31;69.81;101745.59;10453668;28;20044;-66
2022/05/13 15:02:12;;;;;;;5.60;1.77;;;;;;;18.31;71.25;101745.59;10468837;28;20090;-66
2022/05/13 15:07:38;;;;;;;9.00;1.63;;;;;;;18.30;71.68;101743.94;10497952;28;20047;-67
2022/05/13 15:12:38;;;;;;;12.45;1.98;;;;;;;18.15;71.01;101746.78;10496561;28;20056;-68
2022/05/13 15:17:40;;;;;;;8.25;1.60;;;;;;;18.80;68.47;101734.78;10499343;28;20040;-65
2022/05/13 15:22:42;;;;;;;8.93;1.92;;;;;;;18.98;68.79;101738.84;10480053;28;20092;-65
2022/05/13 15:27:43;;;;;;;7.63;2.70;;;;;;;18.37;68.95;101732.47;10496048;28;20032;-66
2022/05/13 15:32:43;;;;;;;5.45;1.27;;;;;;;19.53;68.52;101740.34;10453376;28;20328;-66
2022/05/13 15:37:44;;;;;;;6.20;1.63;;;;;;;19.87;65.92;101727.44;10455349;28;20049;-70
2022/05/13 15:42:45;;;;;;;9.13;2.47;;;;;;;18.29;68.58;101736.69;10457959;28;20039;-65
2022/05/13 15:47:46;;;;;;;9.13;2.78;;;;;;;17.85;70.02;101736.56;10455463;28;20041;-64
2022/05/13 15:52:47;;;;;;;5.65;1.88;;;;;;;18.33;71.31;101746.16;10421213;28;20096;-66
2022/05/13 15:57:50;;;;;;;8.32;2.35;;;;;;;18.66;70.25;101740.13;10472684;28;20037;-66
2022/05/13 16:02:51;;;;;;;8.88;2.22;;;;;;;18.41;68.25;101741.91;10501227;28;20083;-66
2022/05/13 16:07:52;;;;;;;6.15;1.70;;;;;;;18.72;67.87;101734.22;10505758;28;20029;-66
2022/05/13 16:13:04;;;;;;;8.05;1.63;;;;;;;19.60;66.71;101722.41;10489156;28;20044;-65
2022/05/13 16:18:06;;;;;;;8.45;2.22;;;;;;;17.89;68.90;101749.63;10505645;28;20044;-66
2022/05/13 16:23:07;;;;;;;8.88;1.85;;;;;;;18.52;69.36;101742.69;10503386;28;20097;-65
2022/05/13 16:28:07;;;;;;;14.95;2.28;;;;;;;18.78;68.14;101732.22;10462610;28;20037;-65
2022/05/13 16:33:08;;;;;;;11.27;2.10;;;;;;;18.08;67.88;101735.09;10470068;28;20447;-67
2022/05/13 16:38:09;;;;;;;9.45;2.60;;;;;;;17.14;70.79;101750.25;10461481;28;20522;-66
2022/05/13 16:43:09;;;;;;;4.75;1.70;;;;;;;16.97;70.39;101749.69;10464426;28;20071;-66
2022/05/13 16:48:13;;;;;;;6.57;1.90;;;;;;;16.50;72.66;101761.75;10461280;28;20476;-66
2022/05/13 16:53:13;;;;;;;8.90;2.10;;;;;;;16.07;74.08;101753.50;10426332;28;20037;-67
2022/05/13 16:58:14;;;;;;;10.20;2.28;;;;;;;15.99;74.86;101761.53;10443591;28;20049;-65
2022/05/13 17:03:15;;;;;;;11.68;2.45;;;;;;;16.10;75.79;101775.22;10476046;28;20071;-66
2022/05/13 17:08:15;;;;;;;8.02;2.47;;;;;;;16.15;75.84;101774.41;10500394;28;20040;-65
2022/05/13 17:23:54;;;;;;;10.77;2.45;;;;;;;16.22;78.57;101779.69;10485825;28;20555;-65
2022/05/13 17:28:54;;;;;;;13.48;2.97;;;;;;;16.18;78.42;101778.56;10479437;28;20148;-65
2022/05/13 17:33:55;;;;;;;7.13;2.00;;;;;;;15.89;78.32;101777.00;10499095;28;20036;-65
2022/05/13 17:38:55;;;;;;;11.35;2.83;;;;;;;15.79;78.71;101774.16;10501825;28;20032;-65
2022/05/13 17:43:56;;;;;;;11.60;2.35;;;;;;;15.80;79.74;101784.19;10500802;28;20039;-66
2022/05/13 17:48:56;;;;;;;9.50;1.98;;;;;;;15.72;78.78;101768.84;10500269;28;20097;-65
2022/05/13 17:53:58;;;;;;;8.25;2.28;;;;;;;15.46;78.87;101776.13;10500437;28;20024;-65
2022/05/13 17:58:58;;;;;;;8.48;2.65;;;;;;;15.30;79.82;101780.72;10481295;28;20037;-65
2022/05/13 18:04:01;;;;;;;7.93;2.40;;;;;;;15.16;81.10;101782.25;10479790;28;20041;-64
2022/05/13 18:09:04;;;;;;;13.85;3.30;;;;;;;14.93;82.05;101783.41;10460670;28;20135;-67
2022/05/13 18:14:05;;;;;;;12.05;2.90;;;;;;;14.84;82.23;101790.50;10436272;28;20100;-66
2022/05/13 18:19:06;;;;;;;8.50;2.50;;;;;;;14.69;83.43;101788.41;10472517;28;20060;-66
2022/05/13 18:24:06;;;;;;;10.52;2.30;;;;;;;14.76;83.92;101789.06;10488364;28;20037;-65
2022/05/13 18:29:07;;;;;;;13.18;2.97;;;;;;;14.76;84.44;101799.28;10457513;28;20135;-65
2022/05/13 18:34:09;;;;;;;8.15;2.08;;;;;;;14.67;85.16;101796.16;10456063;28;20044;-65
2022/05/13 18:39:11;;;;;;;11.43;3.15;;;;;;;14.62;86.18;101793.34;10458670;28;20060;-65
2022/05/13 18:49:31;;;;;;;9.02;2.83;;;;;;;14.51;88.55;101809.81;10486793;28;20063;-66
2022/05/13 18:54:31;;;;;;;8.95;2.13;;;;;;;14.39;88.70;101817.41;10477746;28;20048;-66
2022/05/13 18:59:32;;;;;;;11.98;2.40;;;;;;;14.15;90.28;101821.50;10469450;28;20428;-65
2022/05/13 19:04:32;;;;;;;13.18;3.67;;;;;;;14.00;91.29;101816.56;10438465;28;20041;-65
2022/05/13 19:09:33;;;;;;;10.80;2.80;;;;;;;13.92;92.43;101821.44;10491995;28;20052;-65
2022/05/13 19:14:33;;;;;;;10.35;2.50;;;;;;;13.73;94.67;101836.66;10496592;28;20037;-65
2022/05/13 19:19:37;;;;;;;8.27;2.58;;;;;;;13.56;96.81;101830.25;10477943;28;20047;-65
2022/05/13 19:24:38;;;;;;;11.65;2.92;;;;;;;13.40;98.92;101835.53;10497585;28;20029;-64
2022/05/13 19:29:38;;;;;;;8.48;2.55;;;;;;;13.29;100.00;101825.38;10497307;28;20045;-65
2022/05/13 19:34:39;;;;;;;9.95;3.22;;;;;;;13.19;100.00;101833.44;10460313;28;20437;-65
2022/05/13 19:39:40;;;;;;;10.95;3.13;;;;;;;13.09;100.00;101837.72;10454834;28;20124;-67
2022/05/13 19:44:40;;;;;;;12.43;3.13;;;;;;;13.03;100.00;101838.69;10453575;28;20052;-67
2022/05/13 19:49:41;;;;;;;7.38;2.97;;;;;;;12.94;100.00;101842.97;10452538;28;20040;-64
2022/05/13 19:54:41;;;;;;;14.70;4.20;;;;;;;12.82;100.00;101845.75;10455686;28;20029;-66
2022/05/13 19:59:42;;;;;;;14.13;3.38;;;;;;;12.71;100.00;101847.50;10455986;28;20469;-66
2022/05/13 20:10:38;;;;;;;8.70;3.50;;;;;;;12.60;100.00;101855.78;10446121;28;20033;-64
2022/05/13 20:15:22;;;;;;;13.88;3.28;;;;;;;12.50;100.00;101853.66;10492761;28;20051;-65
2022/05/13 20:25:41;;;;;;;15.65;4.07;;;;;;;12.30;100.00;101854.06;10497239;28;20062;-65
2022/05/13 20:30:43;;;;;;;10.55;3.72;;;;;;;12.06;100.00;101839.44;10495219;28;20056;-66
2022/05/13 20:35:44;;;;;;;12.98;4.60;;;;;;;12.11;100.00;101850.56;10493568;28;20403;-66
2022/05/13 20:40:45;;;;;;;10.40;4.18;;;;;;;12.05;100.00;101846.88;10496348;28;20040;-65
2022/05/13 20:45:46;;;;;;;16.90;5.90;;;;;;;11.97;100.00;101849.13;10478519;28;20036;-66
2022/05/13 20:50:46;;;;;;;10.63;4.18;;;;;;;11.73;100.00;101835.31;10502663;28;20043;-66
2022/05/13 20:55:46;;;;;;;10.13;4.60;;;;;;;11.63;100.00;101835.88;10503527;28;20060;-66
2022/05/13 21:00:47;;;;;;;11.48;4.40;;;;;;;11.49;100.00;101835.28;10502739;28;20075;-65
2022/05/13 21:05:47;;;;;;;13.18;4.75;;;;;;;11.37;100.00;101839.94;10501103;28;20033;-66
2022/05/13 21:10:48;;;;;;;13.32;5.13;;;;;;;11.30;100.00;101839.19;10496195;28;20037;-66
2022/05/13 21:15:49;;;;;;;12.77;5.60;;;;;;;11.18;100.00;101824.53;10466002;28;20044;-65
2022/05/13 21:20:49;;;;;;;8.88;4.72;;;;;;;11.17;100.00;101829.22;10460348;28;20041;-65
2022/05/13 21:25:50;;;;;;;10.70;4.55;;;;;;;11.15;100.00;101830.53;10460344;28;20036;-65
2022/05/13 21:30:50;;;;;;;9.23;4.10;;;;;;;11.09;100.00;101821.28;10458616;28;20079;-65
2022/05/13 21:41:09;;;;;;;11.93;4.75;;;;;;;11.13;100.00;101825.22;10460304;28;20037;-65
2022/05/13 21:46:10;;;;;;;11.18;3.90;;;;;;;11.19;100.00;101828.97;10459994;28;20059;-66
2022/05/13 21:52:02;;;;;;;10.13;4.18;;;;;;;11.25;100.00;101828.88;10459901;28;20033;-65
2022/05/13 21:56:31;;;;;;;13.48;3.45;;;;;;;11.32;100.00;101826.00;10459904;28;20041;-66
2022/05/13 22:01:31;;;;;;;10.27;4.65;;;;;;;11.40;100.00;101820.16;10440590;28;20044;-66
2022/05/13 22:06:34;;;;;;;11.63;4.40;;;;;;;11.48;100.00;101821.72;10457814;28;20049;-67
2022/05/13 22:11:34;;;;;;;12.57;4.13;;;;;;;11.58;100.00;101821.97;10459397;28;20504;-66
2022/05/13 22:16:35;;;;;;;14.93;5.72;;;;;;;11.61;100.00;101815.97;10458058;28;20041;-65
2022/05/13 22:21:36;;;;;;;18.92;6.53;;;;;;;11.67;100.00;101820.53;10459014;28;20032;-66
2022/05/13 22:26:36;;;;;;;13.75;5.80;;;;;;;11.80;100.00;101824.16;10475522;28;20045;-64
2022/05/13 22:31:37;;;;;;;16.13;5.75;;;;;;;11.88;100.00;101827.41;10496963;28;20462;-67
2022/05/13 22:36:38;;;;;;;18.05;5.38;;;;;;;11.96;100.00;101811.59;10497877;28;20041;-64
2022/05/13 22:41:38;;;;;;;14.80;4.32;;;;;;;12.06;100.00;101823.69;10497956;28;20611;-65
2022/05/13 22:46:39;;;;;;;13.02;4.22;;;;;;;12.17;100.00;101819.25;10467085;28;20040;-64
2022/05/13 22:51:40;;;;;;;12.07;3.97;;;;;;;11.98;100.00;101774.38;10459400;28;20056;-68
2022/05/13 22:56:41;;;;;;;8.23;3.72;;;;;;;12.08;100.00;101802.22;10456227;28;20044;-66
2022/05/13 23:01:42;;;;;;;11.23;4.28;;;;;;;12.08;100.00;101801.38;10455379;28;20041;-65
2022/05/13 23:12:02;;;;;;;14.95;6.43;;;;;;;11.81;100.00;101795.50;10456642;28;20092;-67
2022/05/13 23:17:02;;;;;;;14.25;4.20;;;;;;;11.64;100.00;101804.47;10456532;28;20045;-65
2022/05/13 23:22:03;;;;;;;8.85;3.83;;;;;;;11.25;100.00;101750.84;10455532;28;20044;-66
2022/05/13 23:27:04;;;;;;;13.07;4.20;;;;;;;11.45;100.00;101798.25;10455079;28;20083;-65
2022/05/13 23:32:04;;;;;;;14.63;4.28;;;;;;;11.34;100.00;101799.03;10456260;28;20045;-65
2022/05/13 23:37:05;;;;;;;16.65;4.50;;;;;;;11.27;100.00;101809.34;10454280;28;20041;-65
2022/05/13 23:42:05;;;;;;;14.32;4.47;;;;;;;11.22;100.00;101810.03;10456360;28;20064;-65
2022/05/13 23:47:06;;;;;;;13.25;3.80;;;;;;;11.09;100.00;101794.53;10457418;28;20393;-65
2022/05/13 23:52:06;;;;;;;13.27;4.53;;;;;;;11.08;100.00;101800.31;10454465;28;20029;-65
2022/05/13 23:57:07;;;;;;;11.55;4.07;;;;;;;10.95;100.00;101783.97;10453450;28;20071;-65
